sensor_id;sensor_type;location;lat;lon;timestamp;pressure;altitude;pressure_sealevel;temperature;humidity
37892;BME280;45797;47.466;9.486;2023-04-28T00:01:32;95700.56;;;15.24;52.94
37892;BME280;45797;47.466;9.486;2023-04-28T00:06:38;95702.38;;;15.24;52.76
37892;BME280;45797;47.466;9.486;2023-04-28T00:11:58;95700.19;;;15.19;53.01
37892;BME280;45797;47.466;9.486;2023-04-28T00:16:58;95690.44;;;15.20;53.25
37892;BME280;45797;47.466;9.486;2023-04-28T00:22:15;95681.84;;;15.18;52.98
37892;BME280;45797;47.466;9.486;2023-04-28T00:27:18;95675.44;;;15.20;53.23
37892;BME280;45797;47.466;9.486;2023-04-28T00:32:20;95672.97;;;15.19;53.54
37892;BME280;45797;47.466;9.486;2023-04-28T00:37:21;95674.91;;;15.17;53.76
37892;BME280;45797;47.466;9.486;2023-04-28T00:42:23;95675.75;;;15.17;53.73
37892;BME280;45797;47.466;9.486;2023-04-28T00:47:23;95664.91;;;15.20;53.94
37892;BME280;45797;47.466;9.486;2023-04-28T00:52:26;95657.25;;;15.27;53.50
37892;BME280;45797;47.466;9.486;2023-04-28T00:57:31;95660.44;;;15.30;53.58
37892;BME280;45797;47.466;9.486;2023-04-28T01:02:35;95662.09;;;15.31;53.84
37892;BME280;45797;47.466;9.486;2023-04-28T01:07:35;95656.81;;;15.31;53.34
37892;BME280;45797;47.466;9.486;2023-04-28T01:12:37;95649.72;;;15.32;53.54
37892;BME280;45797;47.466;9.486;2023-04-28T01:17:46;95645.13;;;15.34;53.72
37892;BME280;45797;47.466;9.486;2023-04-28T01:22:46;95637.09;;;15.35;54.53
37892;BME280;45797;47.466;9.486;2023-04-28T01:27:47;95632.50;;;15.37;54.13
37892;BME280;45797;47.466;9.486;2023-04-28T01:32:47;95623.59;;;15.38;54.21
37892;BME280;45797;47.466;9.486;2023-04-28T01:37:49;95618.69;;;15.43;53.97
37892;BME280;45797;47.466;9.486;2023-04-28T01:43:06;95632.88;;;15.42;54.25
37892;BME280;45797;47.466;9.486;2023-04-28T01:48:06;95628.31;;;15.45;54.25
37892;BME280;45797;47.466;9.486;2023-04-28T01:53:09;95619.25;;;15.47;54.23
37892;BME280;45797;47.466;9.486;2023-04-28T01:58:14;95660.94;;;15.43;54.24
37892;BME280;45797;47.466;9.486;2023-04-28T02:03:23;95626.53;;;15.35;54.43
37892;BME280;45797;47.466;9.486;2023-04-28T02:08:24;95629.88;;;15.28;54.84
37892;BME280;45797;47.466;9.486;2023-04-28T02:13:26;95634.91;;;15.21;54.88
37892;BME280;45797;47.466;9.486;2023-04-28T02:18:26;95630.22;;;14.96;56.03
37892;BME280;45797;47.466;9.486;2023-04-28T02:23:33;95632.16;;;14.94;56.13
37892;BME280;45797;47.466;9.486;2023-04-28T02:28:34;95626.91;;;14.94;56.49
37892;BME280;45797;47.466;9.486;2023-04-28T02:33:35;95631.34;;;14.93;56.26
37892;BME280;45797;47.466;9.486;2023-04-28T02:38:36;95643.28;;;14.97;56.36
37892;BME280;45797;47.466;9.486;2023-04-28T02:43:39;95682.41;;;15.02;55.94
37892;BME280;45797;47.466;9.486;2023-04-28T02:48:41;95721.81;;;15.32;55.40
37892;BME280;45797;47.466;9.486;2023-04-28T02:53:42;95712.50;;;15.48;54.56
37892;BME280;45797;47.466;9.486;2023-04-28T02:58:51;95713.16;;;15.50;55.33
37892;BME280;45797;47.466;9.486;2023-04-28T03:03:52;95714.00;;;15.50;56.07
37892;BME280;45797;47.466;9.486;2023-04-28T03:08:54;95714.69;;;15.52;56.38
37892;BME280;45797;47.466;9.486;2023-04-28T03:14:04;95700.41;;;15.45;56.41
37892;BME280;45797;47.466;9.486;2023-04-28T03:19:07;95696.22;;;15.42;57.11
37892;BME280;45797;47.466;9.486;2023-04-28T03:24:15;95682.91;;;15.34;57.19
37892;BME280;45797;47.466;9.486;2023-04-28T03:29:17;95674.91;;;15.26;57.62
37892;BME280;45797;47.466;9.486;2023-04-28T03:34:24;95671.69;;;15.23;57.92
37892;BME280;45797;47.466;9.486;2023-04-28T03:39:28;95678.63;;;15.24;58.13
37892;BME280;45797;47.466;9.486;2023-04-28T03:44:30;95689.34;;;15.03;58.94
37892;BME280;45797;47.466;9.486;2023-04-28T03:49:31;95725.72;;;14.61;59.68
37892;BME280;45797;47.466;9.486;2023-04-28T03:54:33;95732.28;;;14.36;60.67
37892;BME280;45797;47.466;9.486;2023-04-28T03:59:34;95735.91;;;14.35;60.77
37892;BME280;45797;47.466;9.486;2023-04-28T04:04:40;95756.16;;;14.34;60.70
37892;BME280;45797;47.466;9.486;2023-04-28T04:09:40;95765.03;;;14.33;60.79
37892;BME280;45797;47.466;9.486;2023-04-28T04:14:41;95783.63;;;14.32;60.72
37892;BME280;45797;47.466;9.486;2023-04-28T04:19:42;95778.00;;;14.15;61.87
37892;BME280;45797;47.466;9.486;2023-04-28T04:24:45;95771.44;;;14.10;61.49
37892;BME280;45797;47.466;9.486;2023-04-28T04:29:45;95748.16;;;14.05;61.73
37892;BME280;45797;47.466;9.486;2023-04-28T04:34:55;95757.84;;;14.05;61.88
37892;BME280;45797;47.466;9.486;2023-04-28T04:40:03;95744.38;;;13.98;62.26
37892;BME280;45797;47.466;9.486;2023-04-28T04:45:10;95740.22;;;13.95;62.55
37892;BME280;45797;47.466;9.486;2023-04-28T04:50:10;95771.22;;;13.92;62.74
37892;BME280;45797;47.466;9.486;2023-04-28T04:55:12;95771.19;;;13.82;63.22
37892;BME280;45797;47.466;9.486;2023-04-28T05:00:15;95763.41;;;13.81;63.33
37892;BME280;45797;47.466;9.486;2023-04-28T05:05:19;95773.72;;;13.84;63.49
37892;BME280;45797;47.466;9.486;2023-04-28T05:10:23;95759.56;;;13.85;63.89
37892;BME280;45797;47.466;9.486;2023-04-28T05:15:32;95749.88;;;13.85;63.61
37892;BME280;45797;47.466;9.486;2023-04-28T05:21:01;95757.91;;;13.84;63.82
37892;BME280;45797;47.466;9.486;2023-04-28T05:26:01;95752.38;;;13.87;64.14
37892;BME280;45797;47.466;9.486;2023-04-28T05:31:06;95749.34;;;13.91;64.13
37892;BME280;45797;47.466;9.486;2023-04-28T05:36:10;95742.53;;;13.89;64.21
37892;BME280;45797;47.466;9.486;2023-04-28T05:41:18;95745.44;;;13.86;64.52
37892;BME280;45797;47.466;9.486;2023-04-28T05:46:25;95724.63;;;13.83;64.61
37892;BME280;45797;47.466;9.486;2023-04-28T05:51:25;95716.16;;;13.79;64.76
37892;BME280;45797;47.466;9.486;2023-04-28T05:56:33;95722.53;;;13.77;64.79
37892;BME280;45797;47.466;9.486;2023-04-28T06:01:46;95710.63;;;13.52;65.09
37892;BME280;45797;47.466;9.486;2023-04-28T06:06:48;95699.09;;;13.43;65.15
37892;BME280;45797;47.466;9.486;2023-04-28T06:12:04;95680.44;;;13.46;65.32
37892;BME280;45797;47.466;9.486;2023-04-28T06:17:07;95690.41;;;13.52;65.27
37892;BME280;45797;47.466;9.486;2023-04-28T06:22:07;95685.84;;;13.54;65.39
37892;BME280;45797;47.466;9.486;2023-04-28T06:27:12;95698.06;;;13.55;65.31
37892;BME280;45797;47.466;9.486;2023-04-28T06:32:19;95690.41;;;13.52;65.03
37892;BME280;45797;47.466;9.486;2023-04-28T06:37:19;95680.03;;;13.51;65.67
37892;BME280;45797;47.466;9.486;2023-04-28T06:42:22;95682.13;;;13.57;65.40
37892;BME280;45797;47.466;9.486;2023-04-28T06:47:32;95684.78;;;13.57;65.66
37892;BME280;45797;47.466;9.486;2023-04-28T06:52:33;95682.69;;;13.60;65.91
37892;BME280;45797;47.466;9.486;2023-04-28T06:57:36;95689.34;;;13.64;65.50
37892;BME280;45797;47.466;9.486;2023-04-28T07:02:37;95683.25;;;13.64;65.59
37892;BME280;45797;47.466;9.486;2023-04-28T07:07:37;95681.34;;;13.66;65.77
37892;BME280;45797;47.466;9.486;2023-04-28T07:12:39;95662.22;;;13.73;65.90
37892;BME280;45797;47.466;9.486;2023-04-28T07:17:40;95692.75;;;13.76;65.82
37892;BME280;45797;47.466;9.486;2023-04-28T07:22:47;95680.97;;;13.80;65.89
37892;BME280;45797;47.466;9.486;2023-04-28T07:27:49;95671.03;;;13.84;65.66
37892;BME280;45797;47.466;9.486;2023-04-28T07:32:50;95678.38;;;13.90;65.74
37892;BME280;45797;47.466;9.486;2023-04-28T07:37:52;95690.31;;;13.94;66.24
37892;BME280;45797;47.466;9.486;2023-04-28T07:42:55;95691.44;;;14.01;66.03
37892;BME280;45797;47.466;9.486;2023-04-28T07:47:57;95692.84;;;14.05;66.29
37892;BME280;45797;47.466;9.486;2023-04-28T07:52:58;95696.19;;;14.07;66.03
37892;BME280;45797;47.466;9.486;2023-04-28T07:57:58;95687.31;;;14.08;66.52
37892;BME280;45797;47.466;9.486;2023-04-28T08:03:19;95692.44;;;14.19;66.21
37892;BME280;45797;47.466;9.486;2023-04-28T08:08:51;95698.72;;;14.38;65.59
37892;BME280;45797;47.466;9.486;2023-04-28T08:13:52;95720.16;;;14.54;65.64
37892;BME280;45797;47.466;9.486;2023-04-28T08:18:53;95759.56;;;14.65;66.13
37892;BME280;45797;47.466;9.486;2023-04-28T08:23:54;95776.81;;;14.69;65.88
37892;BME280;45797;47.466;9.486;2023-04-28T08:29:02;95764.03;;;14.74;65.70
37892;BME280;45797;47.466;9.486;2023-04-28T08:34:04;95756.41;;;14.71;66.21
37892;BME280;45797;47.466;9.486;2023-04-28T08:39:05;95746.09;;;14.68;65.98
37892;BME280;45797;47.466;9.486;2023-04-28T08:44:09;95742.66;;;14.68;66.23
37892;BME280;45797;47.466;9.486;2023-04-28T08:49:16;95728.09;;;14.64;66.07
37892;BME280;45797;47.466;9.486;2023-04-28T08:54:18;95727.09;;;14.65;66.30
37892;BME280;45797;47.466;9.486;2023-04-28T08:59:21;95736.16;;;14.72;65.99
37892;BME280;45797;47.466;9.486;2023-04-28T09:04:22;95735.31;;;14.71;66.44
37892;BME280;45797;47.466;9.486;2023-04-28T09:09:28;95722.53;;;14.86;65.87
37892;BME280;45797;47.466;9.486;2023-04-28T09:14:37;95726.72;;;14.98;65.76
37892;BME280;45797;47.466;9.486;2023-04-28T09:19:38;95729.06;;;15.01;65.20
37892;BME280;45797;47.466;9.486;2023-04-28T09:24:42;95741.72;;;14.98;65.59
37892;BME280;45797;47.466;9.486;2023-04-28T09:29:52;95741.72;;;14.98;65.54
37892;BME280;45797;47.466;9.486;2023-04-28T09:34:54;95755.03;;;15.06;65.74
37892;BME280;45797;47.466;9.486;2023-04-28T09:40:08;95754.06;;;15.17;65.44
37892;BME280;45797;47.466;9.486;2023-04-28T09:45:17;95749.63;;;15.27;65.69
37892;BME280;45797;47.466;9.486;2023-04-28T09:50:20;95746.50;;;15.51;65.23
37892;BME280;45797;47.466;9.486;2023-04-28T09:55:20;95749.84;;;15.53;65.54
37892;BME280;45797;47.466;9.486;2023-04-28T10:00:22;95737.38;;;15.64;64.96
37892;BME280;45797;47.466;9.486;2023-04-28T10:05:25;95728.69;;;15.72;65.31
37892;BME280;45797;47.466;9.486;2023-04-28T10:10:25;95738.44;;;15.71;65.81
37892;BME280;45797;47.466;9.486;2023-04-28T10:15:29;95743.31;;;15.57;66.22
37892;BME280;45797;47.466;9.486;2023-04-28T10:20:31;95746.13;;;15.46;66.32
37892;BME280;45797;47.466;9.486;2023-04-28T10:25:35;95749.44;;;15.48;66.83
37892;BME280;45797;47.466;9.486;2023-04-28T10:30:38;95734.72;;;15.55;66.51
37892;BME280;45797;47.466;9.486;2023-04-28T10:35:45;95729.28;;;15.66;66.63
37892;BME280;45797;47.466;9.486;2023-04-28T10:56:07;95729.69;;;16.08;66.05
37892;BME280;45797;47.466;9.486;2023-04-28T11:01:36;95733.38;;;16.25;65.32
37892;BME280;45797;47.466;9.486;2023-04-28T11:06:46;95740.88;;;16.47;65.13
37892;BME280;45797;47.466;9.486;2023-04-28T11:17:04;95762.44;;;16.52;65.30
37892;BME280;45797;47.466;9.486;2023-04-28T11:22:21;95776.41;;;16.08;66.22
37892;BME280;45797;47.466;9.486;2023-04-28T11:27:25;95777.94;;;15.73;67.46
37892;BME280;45797;47.466;9.486;2023-04-28T11:32:34;95771.25;;;15.50;68.10
37892;BME280;45797;47.466;9.486;2023-04-28T11:38:01;95777.34;;;15.60;67.65
37892;BME280;45797;47.466;9.486;2023-04-28T11:43:04;95760.19;;;16.03;67.28
37892;BME280;45797;47.466;9.486;2023-04-28T11:48:22;95746.81;;;16.59;65.42
37892;BME280;45797;47.466;9.486;2023-04-28T11:53:40;95742.66;;;17.20;64.49
37892;BME280;45797;47.466;9.486;2023-04-28T11:58:41;95730.47;;;17.70;63.98
37892;BME280;45797;47.466;9.486;2023-04-28T12:03:44;95723.88;;;18.01;64.00
37892;BME280;45797;47.466;9.486;2023-04-28T12:08:49;95724.53;;;18.03;64.09
37892;BME280;45797;47.466;9.486;2023-04-28T12:14:27;95734.44;;;17.92;64.54
37892;BME280;45797;47.466;9.486;2023-04-28T12:19:42;95727.09;;;17.86;65.07
37892;BME280;45797;47.466;9.486;2023-04-28T12:24:45;95732.22;;;17.88;65.56
37892;BME280;45797;47.466;9.486;2023-04-28T12:30:27;95735.47;;;17.74;65.29
37892;BME280;45797;47.466;9.486;2023-04-28T12:35:29;95742.44;;;17.75;65.79
37892;BME280;45797;47.466;9.486;2023-04-28T12:40:31;95748.63;;;17.65;65.88
37892;BME280;45797;47.466;9.486;2023-04-28T12:45:41;95756.91;;;17.62;66.24
37892;BME280;45797;47.466;9.486;2023-04-28T12:50:41;95740.06;;;17.72;65.98
37892;BME280;45797;47.466;9.486;2023-04-28T12:55:52;95736.59;;;17.71;66.02
37892;BME280;45797;47.466;9.486;2023-04-28T13:00:53;95729.69;;;17.78;66.09
37892;BME280;45797;47.466;9.486;2023-04-28T13:06:00;95733.59;;;17.92;65.70
37892;BME280;45797;47.466;9.486;2023-04-28T13:11:02;95727.75;;;18.14;65.42
37892;BME280;45797;47.466;9.486;2023-04-28T13:16:12;95715.28;;;18.07;65.36
37892;BME280;45797;47.466;9.486;2023-04-28T13:21:13;95715.06;;;18.00;65.87
37892;BME280;45797;47.466;9.486;2023-04-28T13:26:15;95707.72;;;17.86;66.42
37892;BME280;45797;47.466;9.486;2023-04-28T13:31:18;95701.69;;;17.76;66.61
37892;BME280;45797;47.466;9.486;2023-04-28T13:36:20;95708.97;;;17.74;66.82
37892;BME280;45797;47.466;9.486;2023-04-28T13:41:21;95701.47;;;17.95;66.33
37892;BME280;45797;47.466;9.486;2023-04-28T13:46:26;95704.16;;;18.03;65.99
37892;BME280;45797;47.466;9.486;2023-04-28T13:51:26;95698.53;;;18.06;66.21
37892;BME280;45797;47.466;9.486;2023-04-28T13:56:29;95692.25;;;18.49;65.28
37892;BME280;45797;47.466;9.486;2023-04-28T14:01:30;95687.53;;;19.02;64.29
37892;BME280;45797;47.466;9.486;2023-04-28T14:06:30;95678.72;;;19.50;62.81
37892;BME280;45797;47.466;9.486;2023-04-28T14:11:32;95661.00;;;19.98;62.60
37892;BME280;45797;47.466;9.486;2023-04-28T14:16:33;95655.34;;;20.48;61.13
37892;BME280;45797;47.466;9.486;2023-04-28T14:21:45;95649.75;;;20.89;60.46
37892;BME280;45797;47.466;9.486;2023-04-28T14:26:46;95640.31;;;21.01;60.62
37892;BME280;45797;47.466;9.486;2023-04-28T14:31:46;95649.63;;;21.05;60.57
37892;BME280;45797;47.466;9.486;2023-04-28T14:36:50;95637.78;;;21.08;60.63
37892;BME280;45797;47.466;9.486;2023-04-28T14:41:52;95629.16;;;21.21;60.91
37892;BME280;45797;47.466;9.486;2023-04-28T14:46:56;95636.31;;;21.43;60.35
37892;BME280;45797;47.466;9.486;2023-04-28T14:52:04;95630.47;;;21.77;59.20
37892;BME280;45797;47.466;9.486;2023-04-28T14:57:06;95614.25;;;21.79;59.77
37892;BME280;45797;47.466;9.486;2023-04-28T15:02:22;95615.09;;;21.64;59.64
37892;BME280;45797;47.466;9.486;2023-04-28T15:07:41;95626.69;;;21.19;60.88
37892;BME280;45797;47.466;9.486;2023-04-28T15:12:42;95622.75;;;20.69;61.62
37892;BME280;45797;47.466;9.486;2023-04-28T15:17:57;95631.63;;;20.31;62.62
37892;BME280;45797;47.466;9.486;2023-04-28T15:23:08;95632.28;;;19.93;62.96
37892;BME280;45797;47.466;9.486;2023-04-28T15:28:13;95630.72;;;19.60;63.96
37892;BME280;45797;47.466;9.486;2023-04-28T15:33:15;95617.31;;;19.29;64.71
37892;BME280;45797;47.466;9.486;2023-04-28T15:38:23;95582.66;;;19.14;64.77
37892;BME280;45797;47.466;9.486;2023-04-28T15:43:36;95588.81;;;18.98;64.66
37892;BME280;45797;47.466;9.486;2023-04-28T15:48:42;95573.38;;;18.86;64.74
37892;BME280;45797;47.466;9.486;2023-04-28T15:53:42;95583.19;;;18.69;65.08
37892;BME280;45797;47.466;9.486;2023-04-28T15:58:44;95582.13;;;18.62;65.09
37892;BME280;45797;47.466;9.486;2023-04-28T16:03:58;95566.06;;;18.63;65.15
37892;BME280;45797;47.466;9.486;2023-04-28T16:08:59;95555.81;;;18.68;64.79
37892;BME280;45797;47.466;9.486;2023-04-28T16:13:59;95556.13;;;18.90;64.39
37892;BME280;45797;47.466;9.486;2023-04-28T16:18:59;95550.25;;;19.27;63.49
37892;BME280;45797;47.466;9.486;2023-04-28T16:24:00;95534.66;;;19.24;63.91
37892;BME280;45797;47.466;9.486;2023-04-28T16:29:01;95551.72;;;19.37;63.48
37892;BME280;45797;47.466;9.486;2023-04-28T16:34:03;95533.38;;;19.59;63.60
37892;BME280;45797;47.466;9.486;2023-04-28T16:39:05;95526.75;;;19.55;63.77
37892;BME280;45797;47.466;9.486;2023-04-28T16:44:06;95515.16;;;19.56;64.09
37892;BME280;45797;47.466;9.486;2023-04-28T16:49:08;95506.50;;;19.62;63.80
37892;BME280;45797;47.466;9.486;2023-04-28T16:54:09;95520.16;;;19.43;64.48
37892;BME280;45797;47.466;9.486;2023-04-28T16:59:09;95521.69;;;19.21;65.00
37892;BME280;45797;47.466;9.486;2023-04-28T17:04:12;95524.56;;;19.03;65.41
37892;BME280;45797;47.466;9.486;2023-04-28T17:09:17;95530.75;;;18.87;65.57
37892;BME280;45797;47.466;9.486;2023-04-28T17:14:19;95536.06;;;18.79;65.45
37892;BME280;45797;47.466;9.486;2023-04-28T17:19:20;95547.84;;;18.68;65.97
37892;BME280;45797;47.466;9.486;2023-04-28T17:24:22;95541.88;;;18.66;66.01
37892;BME280;45797;47.466;9.486;2023-04-28T17:29:30;95538.69;;;18.63;65.95
37892;BME280;45797;47.466;9.486;2023-04-28T17:34:32;95542.50;;;18.60;66.75
37892;BME280;45797;47.466;9.486;2023-04-28T17:39:32;95539.69;;;18.53;66.23
37892;BME280;45797;47.466;9.486;2023-04-28T17:44:52;95562.56;;;18.46;66.19
37892;BME280;45797;47.466;9.486;2023-04-28T17:49:53;95565.72;;;18.42;66.16
37892;BME280;45797;47.466;9.486;2023-04-28T17:55:06;95572.00;;;18.33;66.55
37892;BME280;45797;47.466;9.486;2023-04-28T18:00:11;95573.16;;;18.30;66.36
37892;BME280;45797;47.466;9.486;2023-04-28T18:05:13;95589.22;;;18.20;66.63
37892;BME280;45797;47.466;9.486;2023-04-28T18:10:16;95583.91;;;18.12;66.71
37892;BME280;45797;47.466;9.486;2023-04-28T18:15:25;95596.13;;;18.05;66.71
37892;BME280;45797;47.466;9.486;2023-04-28T18:20:26;95587.66;;;17.93;67.14
37892;BME280;45797;47.466;9.486;2023-04-28T18:25:33;95584.81;;;17.87;67.26
37892;BME280;45797;47.466;9.486;2023-04-28T18:30:35;95591.91;;;17.78;67.37
37892;BME280;45797;47.466;9.486;2023-04-28T18:35:38;95601.00;;;17.76;67.13
37892;BME280;45797;47.466;9.486;2023-04-28T18:40:39;95596.03;;;17.73;67.31
37892;BME280;45797;47.466;9.486;2023-04-28T18:45:49;95606.22;;;17.67;67.21
37892;BME280;45797;47.466;9.486;2023-04-28T18:51:04;95607.56;;;17.63;67.25
37892;BME280;45797;47.466;9.486;2023-04-28T18:56:05;95608.38;;;17.64;67.29
37892;BME280;45797;47.466;9.486;2023-04-28T19:01:14;95605.72;;;17.64;67.35
37892;BME280;45797;47.466;9.486;2023-04-28T19:06:23;95604.38;;;17.60;66.98
37892;BME280;45797;47.466;9.486;2023-04-28T19:11:23;95602.06;;;17.57;66.97
37892;BME280;45797;47.466;9.486;2023-04-28T19:16:33;95625.28;;;17.63;66.82
37892;BME280;45797;47.466;9.486;2023-04-28T19:21:48;95620.47;;;17.66;66.56
37892;BME280;45797;47.466;9.486;2023-04-28T19:26:49;95618.88;;;17.74;66.07
37892;BME280;45797;47.466;9.486;2023-04-28T19:31:51;95627.00;;;17.80;66.62
37892;BME280;45797;47.466;9.486;2023-04-28T19:36:53;95623.25;;;17.83;65.89
37892;BME280;45797;47.466;9.486;2023-04-28T19:42:09;95629.88;;;17.87;66.18
37892;BME280;45797;47.466;9.486;2023-04-28T19:47:09;95640.84;;;17.92;65.62
37892;BME280;45797;47.466;9.486;2023-04-28T19:52:12;95635.19;;;17.95;65.75
37892;BME280;45797;47.466;9.486;2023-04-28T19:57:14;95635.88;;;17.97;65.72
37892;BME280;45797;47.466;9.486;2023-04-28T20:02:20;95647.84;;;18.01;65.55
37892;BME280;45797;47.466;9.486;2023-04-28T20:07:24;95641.88;;;18.07;65.47
37892;BME280;45797;47.466;9.486;2023-04-28T20:12:31;95641.25;;;18.13;64.96
37892;BME280;45797;47.466;9.486;2023-04-28T20:17:35;95643.38;;;18.18;65.68
37892;BME280;45797;47.466;9.486;2023-04-28T20:22:44;95648.84;;;18.16;65.34
37892;BME280;45797;47.466;9.486;2023-04-28T20:27:53;95644.56;;;18.15;65.14
37892;BME280;45797;47.466;9.486;2023-04-28T20:32:55;95647.03;;;18.17;65.96
37892;BME280;45797;47.466;9.486;2023-04-28T20:37:56;95644.22;;;18.18;65.35
37892;BME280;45797;47.466;9.486;2023-04-28T20:42:57;95650.69;;;18.16;65.38
37892;BME280;45797;47.466;9.486;2023-04-28T20:48:00;95651.03;;;18.21;65.36
37892;BME280;45797;47.466;9.486;2023-04-28T20:53:03;95660.81;;;18.20;65.29
37892;BME280;45797;47.466;9.486;2023-04-28T20:58:03;95661.13;;;18.17;65.48
37892;BME280;45797;47.466;9.486;2023-04-28T21:03:09;95670.03;;;18.08;65.81
37892;BME280;45797;47.466;9.486;2023-04-28T21:08:15;95669.28;;;17.82;66.55
37892;BME280;45797;47.466;9.486;2023-04-28T21:13:26;95671.44;;;17.60;67.04
37892;BME280;45797;47.466;9.486;2023-04-28T21:18:37;95662.47;;;17.53;67.11
37892;BME280;45797;47.466;9.486;2023-04-28T21:23:37;95659.44;;;17.48;67.10
37892;BME280;45797;47.466;9.486;2023-04-28T21:28:41;95659.06;;;17.43;67.34
37892;BME280;45797;47.466;9.486;2023-04-28T21:33:43;95651.75;;;17.37;67.72
37892;BME280;45797;47.466;9.486;2023-04-28T21:38:44;95655.34;;;17.28;67.44
37892;BME280;45797;47.466;9.486;2023-04-28T21:43:46;95645.69;;;17.19;68.02
37892;BME280;45797;47.466;9.486;2023-04-28T21:48:48;95642.97;;;17.10;68.21
37892;BME280;45797;47.466;9.486;2023-04-28T21:53:48;95654.31;;;17.03;68.64
37892;BME280;45797;47.466;9.486;2023-04-28T21:59:18;95653.41;;;16.94;68.05
37892;BME280;45797;47.466;9.486;2023-04-28T22:04:21;95649.28;;;16.92;68.65
37892;BME280;45797;47.466;9.486;2023-04-28T22:09:24;95628.44;;;16.89;68.88
37892;BME280;45797;47.466;9.486;2023-04-28T22:14:26;95632.50;;;16.83;68.65
37892;BME280;45797;47.466;9.486;2023-04-28T22:19:35;95630.16;;;16.80;68.88
37892;BME280;45797;47.466;9.486;2023-04-28T22:24:35;95631.44;;;16.76;68.91
37892;BME280;45797;47.466;9.486;2023-04-28T22:29:43;95631.75;;;16.73;69.16
37892;BME280;45797;47.466;9.486;2023-04-28T22:34:45;95634.00;;;16.68;69.39
37892;BME280;45797;47.466;9.486;2023-04-28T22:39:47;95636.44;;;16.61;69.25
37892;BME280;45797;47.466;9.486;2023-04-28T22:44:58;95625.59;;;16.54;69.46
37892;BME280;45797;47.466;9.486;2023-04-28T22:50:08;95625.59;;;16.54;69.35
37892;BME280;45797;47.466;9.486;2023-04-28T22:55:17;95623.94;;;16.53;69.39
37892;BME280;45797;47.466;9.486;2023-04-28T23:00:18;95630.22;;;16.52;69.70
37892;BME280;45797;47.466;9.486;2023-04-28T23:05:19;95624.94;;;16.52;69.71
37892;BME280;45797;47.466;9.486;2023-04-28T23:10:19;95627.44;;;16.54;69.71
37892;BME280;45797;47.466;9.486;2023-04-28T23:15:28;95634.53;;;16.53;69.71
37892;BME280;45797;47.466;9.486;2023-04-28T23:20:38;95622.44;;;16.51;69.95
37892;BME280;45797;47.466;9.486;2023-04-28T23:25:44;95622.28;;;16.52;69.65
37892;BME280;45797;47.466;9.486;2023-04-28T23:30:44;95620.47;;;16.53;70.02
37892;BME280;45797;47.466;9.486;2023-04-28T23:35:44;95621.31;;;16.53;69.66
37892;BME280;45797;47.466;9.486;2023-04-28T23:40:46;95623.63;;;16.56;69.83
37892;BME280;45797;47.466;9.486;2023-04-28T23:45:54;95620.16;;;16.56;69.68
37892;BME280;45797;47.466;9.486;2023-04-28T23:50:56;95616.53;;;16.57;70.27
37892;BME280;45797;47.466;9.486;2023-04-28T23:55:56;95605.28;;;16.55;70.45
